createdAt,value
2023-01-03T00:02:00.946Z,101872.00
2023-01-03T00:04:27.763Z,101878.53
2023-01-03T00:06:54.443Z,101883.44
2023-01-03T00:09:23.433Z,101885.47
2023-01-03T00:12:09.745Z,101885.47
2023-01-03T00:14:38.966Z,101883.38
2023-01-03T00:17:07.637Z,101886.72
2023-01-03T00:19:37.054Z,101881.22
2023-01-03T00:22:04.051Z,101886.41
2023-01-03T00:24:31.075Z,101884.47
2023-01-03T00:27:00.750Z,101889.06
2023-01-03T00:29:27.529Z,101879.22
2023-01-03T00:31:54.300Z,101886.69
2023-01-03T00:34:21.281Z,101876.50
2023-01-03T00:36:48.354Z,101886.00
2023-01-03T00:39:14.976Z,101882.75
2023-01-03T00:41:41.961Z,101881.16
2023-01-03T00:44:08.677Z,101874.41
2023-01-03T00:46:36.068Z,101883.09
2023-01-03T00:49:03.809Z,101880.22
2023-01-03T00:51:32.032Z,101884.97
2023-01-03T00:53:59.296Z,101876.94
2023-01-03T00:56:27.699Z,101881.69
2023-01-03T00:58:54.911Z,101880.81
2023-01-03T01:01:23.785Z,101889.03
2023-01-03T01:03:52.429Z,101891.88
2023-01-03T01:06:21.020Z,101898.44
2023-01-03T01:08:51.129Z,101895.31
2023-01-03T01:11:17.841Z,101891.63
2023-01-03T01:13:45.363Z,101894.50
2023-01-03T01:16:13.927Z,101892.09
2023-01-03T01:18:41.236Z,101897.09
2023-01-03T01:21:08.732Z,101904.31
2023-01-03T01:23:35.914Z,101900.88
2023-01-03T01:26:03.648Z,101906.22
2023-01-03T01:28:33.050Z,101906.19
2023-01-03T01:31:03.734Z,101914.56
2023-01-03T01:33:31.682Z,101912.94
2023-01-03T01:35:58.170Z,101920.38
2023-01-03T01:38:24.933Z,101915.44
2023-01-03T01:40:51.482Z,101917.34
2023-01-03T01:43:38.276Z,101920.88
2023-01-03T01:46:11.425Z,101911.03
2023-01-03T01:48:38.582Z,101914.75
2023-01-03T01:51:05.321Z,101920.09
2023-01-03T01:53:36.763Z,101921.72
2023-01-03T01:56:08.514Z,101925.25
2023-01-03T01:58:36.631Z,101921.34
2023-01-03T02:01:09.960Z,101925.50
2023-01-03T02:03:36.911Z,101926.34
2023-01-03T02:06:05.208Z,101932.31
2023-01-03T02:08:31.695Z,101928.84
2023-01-03T02:11:04.102Z,101935.84
2023-01-03T02:13:48.982Z,101936.06
2023-01-03T02:16:15.527Z,101936.69
2023-01-03T02:18:46.788Z,101940.41
2023-01-03T02:21:25.636Z,101942.47
2023-01-03T02:24:10.937Z,101933.63
2023-01-03T02:26:40.396Z,101934.63
2023-01-03T02:29:12.816Z,101937.31
2023-01-03T02:31:52.686Z,101931.78
2023-01-03T02:34:27.476Z,101933.41
2023-01-03T02:37:03.875Z,101928.28
2023-01-03T02:39:40.818Z,101927.66
2023-01-03T02:42:46.292Z,101920.66
2023-01-03T02:45:39.260Z,101925.59
2023-01-03T02:48:15.303Z,101920.25
2023-01-03T02:50:45.967Z,101921.06
2023-01-03T02:53:14.611Z,101926.00
2023-01-03T02:55:43.270Z,101923.97
2023-01-03T02:58:12.912Z,101933.44
2023-01-03T03:00:41.430Z,101926.84
2023-01-03T03:03:12.412Z,101920.72
2023-01-03T03:06:00.569Z,101922.38
2023-01-03T03:08:27.092Z,101927.28
2023-01-03T03:11:13.029Z,101927.50
2023-01-03T03:13:41.193Z,101928.34
2023-01-03T03:16:11.770Z,101937.16
2023-01-03T03:18:50.516Z,101935.94
2023-01-03T03:21:37.164Z,101933.88
2023-01-03T03:24:30.472Z,101946.84
2023-01-03T03:26:58.365Z,101938.81
2023-01-03T03:29:25.774Z,101941.28
2023-01-03T03:31:52.807Z,101950.72
2023-01-03T03:34:22.291Z,101950.13
2023-01-03T03:36:48.890Z,101954.66
2023-01-03T03:39:34.951Z,101963.47
2023-01-03T03:42:38.117Z,101950.53
2023-01-03T03:45:12.929Z,101965.53
2023-01-03T03:47:49.098Z,101964.31
2023-01-03T03:50:32.087Z,101962.25
2023-01-03T03:53:00.274Z,101963.88
2023-01-03T03:55:41.646Z,101977.06
2023-01-03T03:58:11.795Z,101969.03
2023-01-03T04:00:40.039Z,101969.63
2023-01-03T04:03:08.090Z,101970.06
2023-01-03T04:05:37.592Z,101970.06
2023-01-03T04:08:04.214Z,101972.53
2023-01-03T04:10:37.244Z,101962.66
2023-01-03T04:13:04.555Z,101964.72
2023-01-03T04:15:31.151Z,101968.38
2023-01-03T04:17:57.763Z,101968.63
2023-01-03T04:20:24.299Z,101968.19
2023-01-03T04:22:50.789Z,101975.81
2023-01-03T04:25:17.265Z,101970.47
2023-01-03T04:27:43.740Z,101972.09
2023-01-03T04:30:11.539Z,101974.16
2023-01-03T04:32:38.451Z,101976.63
2023-01-03T04:35:05.274Z,101985.25
2023-01-03T04:37:31.993Z,101977.03
2023-01-03T04:39:58.428Z,101977.88
2023-01-03T04:42:51.068Z,101979.50
2023-01-03T04:45:17.740Z,101980.31
2023-01-03T04:47:44.317Z,101985.66
2023-01-03T04:50:10.975Z,101984.03
2023-01-03T04:52:37.433Z,101987.72
2023-01-03T04:55:04.138Z,101986.91
2023-01-03T04:57:30.609Z,101988.56
2023-01-03T04:59:57.123Z,101980.94
2023-01-03T05:02:23.652Z,101982.63
2023-01-03T05:04:50.314Z,101983.63
2023-01-03T05:07:16.801Z,101976.22
2023-01-03T05:09:43.512Z,101979.50
2023-01-03T05:12:12.125Z,101977.06
2023-01-03T05:14:41.515Z,101982.41
2023-01-03T05:17:08.735Z,101986.09
2023-01-03T05:19:35.326Z,101981.56
2023-01-03T05:22:20.364Z,101980.34
2023-01-03T05:25:05.232Z,101984.06
2023-01-03T05:27:31.787Z,101976.66
2023-01-03T05:29:58.309Z,101987.34
2023-01-03T05:32:25.122Z,101988.97
2023-01-03T05:34:51.710Z,101995.97
2023-01-03T05:37:18.256Z,101997.59
2023-01-03T05:39:44.744Z,101996.59
2023-01-03T05:42:11.228Z,101995.34
2023-01-03T05:44:37.830Z,102002.13
2023-01-03T05:47:05.596Z,102004.19
2023-01-03T05:49:32.211Z,101998.84
2023-01-03T05:51:58.724Z,102000.47
2023-01-03T05:54:26.031Z,102000.09
2023-01-03T05:56:52.733Z,102000.91
2023-01-03T05:59:19.603Z,102001.91
2023-01-03T06:01:46.212Z,101995.56
2023-01-03T06:04:13.021Z,101994.72
2023-01-03T06:06:39.593Z,101995.75
2023-01-03T06:09:07.067Z,102004.59
2023-01-03T06:11:33.708Z,101997.56
2023-01-03T06:14:00.327Z,102000.88
2023-01-03T06:16:45.509Z,102005.59
2023-01-03T06:19:12.171Z,102009.06
2023-01-03T06:21:38.812Z,102012.34
2023-01-03T06:24:05.619Z,102008.88
2023-01-03T06:26:32.276Z,102017.13
2023-01-03T06:28:58.872Z,102014.44
2023-01-03T06:31:25.468Z,102017.75
2023-01-03T06:33:52.230Z,102023.91
2023-01-03T06:36:20.145Z,102023.47
2023-01-03T06:38:46.774Z,102021.84
2023-01-03T06:41:13.862Z,102018.97
2023-01-03T06:43:40.797Z,102023.09
2023-01-03T06:46:26.025Z,102025.53
2023-01-03T06:49:11.312Z,102026.38
2023-01-03T06:51:56.589Z,102018.56
2023-01-03T06:54:24.591Z,102028.00
2023-01-03T06:56:51.594Z,102024.09
2023-01-03T06:59:18.248Z,102029.25
2023-01-03T07:01:45.102Z,102025.53
2023-01-03T07:04:12.385Z,102039.31
2023-01-03T07:06:39.244Z,102028.00
2023-01-03T07:09:05.824Z,102036.44
2023-01-03T07:11:32.470Z,102037.88
2023-01-03T07:13:59.262Z,102040.38
2023-01-03T07:16:30.658Z,102038.50
2023-01-03T07:18:57.997Z,102038.72
2023-01-03T07:21:25.368Z,102046.13
2023-01-03T07:23:55.394Z,102053.53
2023-01-03T07:26:24.213Z,102052.69
2023-01-03T07:28:51.579Z,102049.81
2023-01-03T07:31:18.233Z,102059.06
2023-01-03T07:33:45.427Z,102064.78
2023-01-03T07:36:12.957Z,102069.94
2023-01-03T07:38:40.383Z,102061.94
2023-01-03T07:41:09.858Z,102064.59
2023-01-03T07:43:37.190Z,102073.22
2023-01-03T07:46:09.845Z,102071.81
2023-01-03T07:48:36.637Z,102074.06
2023-01-03T07:51:04.459Z,102077.56
2023-01-03T07:53:31.108Z,102080.63
2023-01-03T07:56:13.413Z,102080.88
2023-01-03T07:58:41.450Z,102077.97
2023-01-03T08:01:12.488Z,102085.16
2023-01-03T08:03:39.683Z,102082.31
2023-01-03T08:06:10.715Z,102088.44
2023-01-03T08:08:38.057Z,102087.19
2023-01-03T08:11:23.308Z,102095.38
2023-01-03T08:13:50.205Z,102098.63
2023-01-03T08:16:17.734Z,102095.31
2023-01-03T08:18:44.696Z,102101.44
2023-01-03T08:21:12.633Z,102108.34
2023-01-03T08:23:39.521Z,102114.06
2023-01-03T08:26:07.595Z,102117.16
2023-01-03T08:28:34.727Z,102119.78
2023-01-03T08:31:03.812Z,102129.97
2023-01-03T08:33:34.504Z,102120.47
2023-01-03T08:36:03.396Z,102126.13
2023-01-03T08:38:35.631Z,102126.94
2023-01-03T08:41:03.026Z,102131.09
2023-01-03T08:43:32.410Z,102139.84
2023-01-03T08:45:59.062Z,102138.00
2023-01-03T08:48:25.836Z,102143.78
2023-01-03T08:50:52.457Z,102143.56
2023-01-03T08:53:19.000Z,102146.13
2023-01-03T08:55:45.715Z,102146.69
2023-01-03T08:58:12.326Z,102147.19
2023-01-03T09:00:39.791Z,102147.19
2023-01-03T09:03:06.700Z,102155.66
2023-01-03T09:05:33.398Z,102159.88
2023-01-03T09:08:00.063Z,102155.00
2023-01-03T09:10:26.947Z,102160.88
2023-01-03T09:12:53.530Z,102167.72
2023-01-03T09:15:20.161Z,102172.06
2023-01-03T09:17:48.420Z,102171.66
2023-01-03T09:20:16.223Z,102166.44
2023-01-03T09:22:42.780Z,102166.63
2023-01-03T09:25:10.184Z,102161.66
2023-01-03T09:27:36.734Z,102161.66
2023-01-03T09:30:03.952Z,102160.22
2023-01-03T09:32:30.463Z,102159.66
2023-01-03T09:34:58.856Z,102163.00
2023-01-03T09:37:25.644Z,102158.47
2023-01-03T09:39:52.429Z,102158.28
2023-01-03T09:42:39.886Z,102168.09
2023-01-03T09:45:08.233Z,102172.81
2023-01-03T09:47:36.964Z,102171.16
2023-01-03T09:50:38.899Z,102174.44
2023-01-03T09:53:09.964Z,102165.41
2023-01-03T09:56:06.294Z,102163.72
2023-01-03T09:58:51.408Z,102157.13
2023-01-03T10:01:52.455Z,102159.56
2023-01-03T10:04:24.865Z,102163.03
2023-01-03T10:07:02.456Z,102162.41
2023-01-03T10:09:48.048Z,102159.16
2023-01-03T10:12:35.209Z,102166.56
2023-01-03T10:15:02.034Z,102162.84
2023-01-03T10:17:34.804Z,102164.34
2023-01-03T10:20:09.043Z,102167.03
2023-01-03T10:22:36.146Z,102164.59
2023-01-03T10:25:05.951Z,102164.81
2023-01-03T10:27:36.331Z,102154.38
2023-01-03T10:30:05.991Z,102158.47
2023-01-03T10:32:49.374Z,102154.75
2023-01-03T10:35:28.329Z,102148.59
2023-01-03T10:37:56.075Z,102145.28
2023-01-03T10:40:31.590Z,102148.94
2023-01-03T10:42:58.223Z,102148.94
2023-01-03T10:45:24.948Z,102156.16
2023-01-03T10:48:01.385Z,102153.88
2023-01-03T10:50:28.718Z,102147.69
2023-01-03T10:52:59.628Z,102148.09
2023-01-03T10:55:26.845Z,102142.75
2023-01-03T10:57:53.474Z,102145.59
2023-01-03T11:00:23.133Z,102148.03
2023-01-03T11:02:50.532Z,102142.91
2023-01-03T11:05:18.229Z,102133.59
2023-01-03T11:07:45.563Z,102136.03
2023-01-03T11:10:18.845Z,102135.59
2023-01-03T11:12:48.756Z,102138.06
2023-01-03T11:15:16.995Z,102133.34
2023-01-03T11:17:54.171Z,102137.84
2023-01-03T11:20:31.764Z,102128.53
2023-01-03T11:23:08.137Z,102125.03
2023-01-03T11:25:34.652Z,102131.00
2023-01-03T11:28:20.176Z,102117.16
2023-01-03T11:30:57.592Z,102112.47
2023-01-03T11:33:39.536Z,102113.69
2023-01-03T11:36:25.046Z,102112.38
2023-01-03T11:38:55.463Z,102104.91
2023-01-03T11:41:38.566Z,102107.34
2023-01-03T11:44:20.546Z,102118.16
2023-01-03T11:46:47.136Z,102108.53
2023-01-03T11:49:21.534Z,102109.78
2023-01-03T11:52:06.836Z,102101.34
2023-01-03T11:54:36.302Z,102096.97
2023-01-03T11:57:09.079Z,102094.66
2023-01-03T11:59:35.634Z,102098.69
2023-01-03T12:02:22.252Z,102098.09
2023-01-03T12:05:06.066Z,102096.09
2023-01-03T12:07:51.937Z,102093.59
2023-01-03T12:10:28.298Z,102085.09
2023-01-03T12:13:13.767Z,102082.34
2023-01-03T12:15:47.954Z,102073.78
2023-01-03T12:18:29.945Z,102085.84
2023-01-03T12:20:59.870Z,102074.81
2023-01-03T12:23:37.564Z,102078.06
2023-01-03T12:26:06.567Z,102072.66
2023-01-03T12:28:40.918Z,102072.34
2023-01-03T12:31:18.190Z,102067.88
2023-01-03T12:33:49.091Z,102066.28
2023-01-03T12:36:38.916Z,102060.00
2023-01-03T12:39:32.648Z,102053.97
2023-01-03T12:42:03.488Z,102052.53
2023-01-03T12:44:36.576Z,102048.44
2023-01-03T12:47:03.673Z,102050.59
2023-01-03T12:49:34.889Z,102046.97
2023-01-03T12:52:01.476Z,102046.84
2023-01-03T12:54:27.990Z,102040.78
2023-01-03T12:57:17.626Z,102045.63
2023-01-03T12:59:44.720Z,102035.97
2023-01-03T13:02:29.835Z,102030.09
2023-01-03T13:05:04.205Z,102038.78
2023-01-03T13:07:32.092Z,102040.50
2023-01-03T13:10:02.072Z,102037.16
2023-01-03T13:12:30.986Z,102031.91
2023-01-03T13:15:05.895Z,102038.75
2023-01-03T13:17:41.846Z,102033.22
2023-01-03T13:20:14.421Z,102029.81
2023-01-03T13:22:46.569Z,102034.28
2023-01-03T13:25:31.732Z,102037.19
2023-01-03T13:28:05.666Z,102026.41
2023-01-03T13:30:36.613Z,102030.41
2023-01-03T13:33:03.039Z,102032.31
2023-01-03T13:35:33.959Z,102029.00
2023-01-03T13:38:11.360Z,102023.38
2023-01-03T13:41:15.975Z,102028.03
2023-01-03T13:43:36.143Z,102028.03
2023-01-03T13:46:25.924Z,102018.78
2023-01-03T13:49:03.212Z,102017.63
2023-01-03T13:51:34.631Z,102023.28
2023-01-03T13:54:25.049Z,102028.75
2023-01-03T13:56:54.733Z,102030.16
2023-01-03T13:59:42.503Z,102033.78
2023-01-03T14:02:12.135Z,102018.81
2023-01-03T14:04:44.991Z,102021.53
2023-01-03T14:07:30.458Z,102024.31
2023-01-03T14:10:12.054Z,102019.31
2023-01-03T14:12:38.755Z,102023.84
2023-01-03T14:15:23.114Z,102020.22
2023-01-03T14:17:55.322Z,102020.75
2023-01-03T14:20:23.782Z,102013.94
2023-01-03T14:22:51.683Z,102008.91
2023-01-03T14:25:31.802Z,102007.22
2023-01-03T14:28:00.675Z,102011.78
2023-01-03T14:30:31.770Z,102011.38
2023-01-03T14:32:58.844Z,102018.94
2023-01-03T14:35:35.761Z,102015.28
2023-01-03T14:38:06.823Z,102020.78
2023-01-03T14:40:34.320Z,102026.16
2023-01-03T14:43:04.864Z,102025.78
2023-01-03T14:45:31.491Z,102026.38
2023-01-03T14:47:58.252Z,102025.41
2023-01-03T14:50:27.143Z,102027.06
2023-01-03T14:52:58.143Z,102032.13
2023-01-03T14:55:29.491Z,102027.28
2023-01-03T14:57:57.775Z,102026.75
2023-01-03T15:00:32.907Z,102024.22
2023-01-03T15:03:01.166Z,102027.03
2023-01-03T15:05:33.104Z,102022.25
2023-01-03T15:08:10.272Z,102035.09
2023-01-03T15:10:59.640Z,102024.81
2023-01-03T15:13:29.973Z,102029.72
2023-01-03T15:15:58.215Z,102034.88
2023-01-03T15:18:26.039Z,102034.13
2023-01-03T15:20:53.795Z,102046.59
2023-01-03T15:23:28.931Z,102053.16
2023-01-03T15:25:55.555Z,102043.22
2023-01-03T15:28:35.528Z,102057.47
2023-01-03T15:31:14.511Z,102054.69
2023-01-03T15:33:41.442Z,102057.63
2023-01-03T15:36:18.182Z,102064.34
2023-01-03T15:38:46.409Z,102068.53
2023-01-03T15:41:40.267Z,102068.88
2023-01-03T15:44:07.236Z,102076.38
2023-01-03T15:46:34.271Z,102072.16
2023-01-03T15:49:02.036Z,102072.09
2023-01-03T15:51:28.639Z,102085.59
2023-01-03T15:53:55.158Z,102073.53
2023-01-03T15:56:23.787Z,102086.28
2023-01-03T15:58:52.019Z,102075.88
2023-01-03T16:01:19.130Z,102084.94
2023-01-03T16:03:46.554Z,102095.25
2023-01-03T16:06:13.263Z,102090.22
2023-01-03T16:08:40.313Z,102089.31
2023-01-03T16:11:15.543Z,102092.16
2023-01-03T16:13:46.208Z,102082.63
2023-01-03T16:16:15.797Z,102094.16
2023-01-03T16:18:44.884Z,102093.56
2023-01-03T16:21:12.881Z,102089.91
2023-01-03T16:23:39.747Z,102090.59
2023-01-03T16:26:06.294Z,102099.72
2023-01-03T16:28:32.840Z,102092.09
2023-01-03T16:31:01.289Z,102094.69
2023-01-03T16:33:34.757Z,102098.50
2023-01-03T16:36:02.153Z,102103.22
2023-01-03T16:38:29.644Z,102105.88
2023-01-03T16:40:56.617Z,102101.47
2023-01-03T16:43:26.810Z,102098.50
2023-01-03T16:45:54.768Z,102105.19
2023-01-03T16:48:23.330Z,102106.97
2023-01-03T16:50:51.959Z,102106.63
2023-01-03T16:53:25.019Z,102113.69
2023-01-03T16:55:54.637Z,102111.66
2023-01-03T16:58:21.230Z,102110.84
2023-01-03T17:00:47.942Z,102101.38
2023-01-03T17:03:14.673Z,102105.53
2023-01-03T17:05:41.639Z,102103.47
2023-01-03T17:08:16.198Z,102105.75
2023-01-03T17:10:46.159Z,102105.63
2023-01-03T17:13:27.400Z,102108.56
2023-01-03T17:15:54.739Z,102107.41
2023-01-03T17:18:23.116Z,102109.94
2023-01-03T17:20:52.835Z,102105.84
2023-01-03T17:23:19.669Z,102106.69
2023-01-03T17:25:46.346Z,102108.00
2023-01-03T17:28:12.963Z,102113.75
2023-01-03T17:30:39.533Z,102113.38
2023-01-03T17:33:06.172Z,102113.00
2023-01-03T17:35:33.422Z,102119.19
2023-01-03T17:38:27.464Z,102123.94
2023-01-03T17:40:48.279Z,102126.22
2023-01-03T17:43:22.469Z,102128.28
2023-01-03T17:46:08.755Z,102133.44
2023-01-03T17:48:54.126Z,102132.19
2023-01-03T17:51:21.407Z,102141.06
2023-01-03T17:53:49.775Z,102129.50
2023-01-03T17:56:17.442Z,102119.56
2023-01-03T17:58:44.298Z,102117.91
2023-01-03T18:01:13.407Z,102124.56
2023-01-03T18:03:40.387Z,102120.03
2023-01-03T18:06:11.816Z,102120.03
2023-01-03T18:08:38.477Z,102121.28
2023-01-03T18:11:07.294Z,102117.97
2023-01-03T18:13:35.960Z,102119.19
2023-01-03T18:16:03.365Z,102117.13
2023-01-03T18:18:31.359Z,102110.53
2023-01-03T18:20:58.236Z,102123.16
2023-01-03T18:23:27.763Z,102109.78
2023-01-03T18:25:54.812Z,102114.53
2023-01-03T18:28:25.748Z,102120.28
2023-01-03T18:30:52.803Z,102125.47
2023-01-03T18:33:19.536Z,102121.72
2023-01-03T18:35:46.164Z,102119.88
2023-01-03T18:38:33.016Z,102111.81
2023-01-03T18:41:04.889Z,102119.66
2023-01-03T18:43:32.651Z,102106.50
2023-01-03T18:45:59.430Z,102112.69
2023-01-03T18:48:26.027Z,102110.28
2023-01-03T18:50:58.285Z,102117.28
2023-01-03T18:53:28.302Z,102113.78
2023-01-03T18:55:54.917Z,102112.34
2023-01-03T18:58:33.690Z,102107.41
2023-01-03T19:01:00.247Z,102117.91
2023-01-03T19:03:28.168Z,102114.63
2023-01-03T19:05:55.493Z,102110.31
2023-01-03T19:08:24.342Z,102115.25
2023-01-03T19:10:51.437Z,102113.38
2023-01-03T19:13:30.385Z,102119.16
2023-01-03T19:15:57.207Z,102115.88
2023-01-03T19:18:23.825Z,102117.13
2023-01-03T19:20:50.765Z,102122.66
2023-01-03T19:23:23.867Z,102122.66
2023-01-03T19:25:50.870Z,102120.19
2023-01-03T19:28:22.273Z,102116.91
2023-01-03T19:30:49.421Z,102118.16
2023-01-03T19:33:16.462Z,102111.56
2023-01-03T19:35:43.617Z,102116.50
2023-01-03T19:38:10.242Z,102118.34
2023-01-03T19:40:38.806Z,102116.09
2023-01-03T19:43:05.609Z,102108.88
2023-01-03T19:45:33.627Z,102113.81
2023-01-03T19:48:01.355Z,102112.38
2023-01-03T19:50:32.938Z,102106.19
2023-01-03T19:53:01.608Z,102104.75
2023-01-03T19:55:30.522Z,102109.28
2023-01-03T19:57:57.946Z,102115.06
2023-01-03T20:00:28.820Z,102113.22
2023-01-03T20:02:57.587Z,102109.09
2023-01-03T20:05:26.557Z,102105.81
2023-01-03T20:07:53.639Z,102110.31
2023-01-03T20:10:22.657Z,102108.69
2023-01-03T20:12:51.183Z,102106.22
2023-01-03T20:15:24.703Z,102094.09
2023-01-03T20:17:54.252Z,102089.75
2023-01-03T20:20:22.464Z,102091.81
2023-01-03T20:23:06.701Z,102100.00
2023-01-03T20:25:34.744Z,102085.63
2023-01-03T20:28:01.632Z,102086.88
2023-01-03T20:30:29.360Z,102086.44
2023-01-03T20:32:56.576Z,102086.25
2023-01-03T20:38:11.685Z,102072.66
2023-01-03T20:40:39.197Z,102071.66
2023-01-03T20:43:05.834Z,102075.53
2023-01-03T20:45:32.514Z,102081.50
2023-01-03T20:47:59.848Z,102073.91
2023-01-03T20:50:28.900Z,102080.69
2023-01-03T20:52:59.278Z,102068.75
2023-01-03T20:55:29.998Z,102054.56
2023-01-03T20:58:00.122Z,102056.00
2023-01-03T21:00:29.794Z,102061.78
2023-01-03T21:02:56.569Z,102052.72
2023-01-03T21:05:23.655Z,102049.84
2023-01-03T21:08:08.793Z,102052.28
2023-01-03T21:10:40.397Z,102051.47
2023-01-03T21:13:07.758Z,102052.28
2023-01-03T21:15:34.953Z,102047.78
2023-01-03T21:18:03.781Z,102047.78
2023-01-03T21:20:31.059Z,102039.16
2023-01-03T21:22:57.811Z,102047.16
2023-01-03T21:25:30.255Z,102038.53
2023-01-03T21:27:56.866Z,102039.97
2023-01-03T21:30:24.342Z,102049.81
2023-01-03T21:32:51.217Z,102041.19
2023-01-03T21:35:19.306Z,102043.22
2023-01-03T21:37:46.480Z,102043.63
2023-01-03T21:40:16.279Z,102041.78
2023-01-03T21:43:04.614Z,102044.22
2023-01-03T21:45:38.940Z,102047.50
2023-01-03T21:48:13.285Z,102042.78
2023-01-03T21:50:41.131Z,102047.66
2023-01-03T21:53:09.931Z,102048.47
2023-01-03T21:55:39.452Z,102040.84
2023-01-03T21:58:06.546Z,102049.69
2023-01-03T22:00:33.132Z,102044.72
2023-01-03T22:03:18.348Z,102050.22
2023-01-03T22:05:44.924Z,102050.47
2023-01-03T22:08:11.863Z,102042.06
2023-01-03T22:10:38.982Z,102029.97
2023-01-03T22:13:07.096Z,102020.91
2023-01-03T22:15:37.835Z,102020.31
2023-01-03T22:18:06.082Z,102016.81
2023-01-03T22:20:38.215Z,102024.66
2023-01-03T22:23:06.595Z,102024.63
2023-01-03T22:25:33.184Z,102024.25
2023-01-03T22:27:59.653Z,102024.03
2023-01-03T22:30:26.224Z,102015.03
2023-01-03T22:32:55.509Z,102026.75
2023-01-03T22:35:21.977Z,102039.88
2023-01-03T22:37:48.515Z,102041.91
2023-01-03T22:40:16.227Z,102042.09
2023-01-03T22:42:42.832Z,102044.56
2023-01-03T22:45:09.999Z,102037.56
2023-01-03T22:47:37.080Z,102035.50
2023-01-03T22:50:04.643Z,102032.44
2023-01-03T22:52:31.220Z,102032.81
2023-01-03T22:54:57.804Z,102033.66
2023-01-03T22:57:24.459Z,102028.31
2023-01-03T22:59:51.160Z,102035.72
2023-01-03T23:02:17.887Z,102018.84
2023-01-03T23:04:44.572Z,102026.22
2023-01-03T23:07:11.304Z,102018.81
2023-01-03T23:09:38.155Z,102020.03
2023-01-03T23:12:23.322Z,102019.41
2023-01-03T23:14:49.874Z,102022.09
2023-01-03T23:17:51.964Z,102021.47
2023-01-03T23:20:18.560Z,102020.56
2023-01-03T23:22:45.173Z,101999.03
2023-01-03T23:25:11.943Z,102006.41
2023-01-03T23:27:38.478Z,101997.16
2023-01-03T23:30:05.214Z,101985.44
2023-01-03T23:32:32.206Z,101989.16
2023-01-03T23:34:58.796Z,101986.47
2023-01-03T23:37:25.345Z,101987.88
2023-01-03T23:39:52.111Z,101991.69
2023-01-03T23:42:18.705Z,101981.41
2023-01-03T23:44:45.243Z,101968.88
2023-01-03T23:47:11.787Z,101985.00
2023-01-03T23:49:39.220Z,101979.38
2023-01-03T23:52:05.933Z,101977.75
2023-01-03T23:54:35.290Z,101979.69
2023-01-03T23:57:01.958Z,101983.81
2023-01-03T23:59:28.492Z,101983.81
